Time;durP1;ratioP1;P1;durP2;ratioP2;P2;SDS_P1;SDS_P2;PMS_P1;PMS_P2;Temp;Humidity;BMP_temperature;BMP_pressure;BME280_temperature;BME280_humidity;BME280_pressure;Samples;Min_cycle;Max_cycle;Signal;HPM_P1;HPM_P2
2023/01/06 00:01:01;;;;;;;26.10;15.82;;;;;;;;;;5040603;28;20044;-77
2023/01/06 00:03:27;;;;;;;23.73;13.80;;;;;;;;;;5048479;28;20778;-78
2023/01/06 00:05:56;;;;;;;22.63;13.57;;;;;;;;;;5046480;28;20079;-77
2023/01/06 00:08:22;;;;;;;30.85;18.50;;;;;;;;;;5048727;28;20044;-77
2023/01/06 00:10:48;;;;;;;23.48;14.48;;;;;;;;;;5048173;28;20037;-78
2023/01/06 00:13:14;;;;;;;24.10;12.88;;;;;;;;;;5052002;28;20043;-77
2023/01/06 00:15:40;;;;;;;28.10;16.35;;;;;;;;;;5047963;28;20033;-78
2023/01/06 00:18:06;;;;;;;26.95;18.02;;;;;;;;;;5051753;28;20025;-78
2023/01/06 00:20:33;;;;;;;23.73;13.68;;;;;;;;;;5052266;28;20075;-77
2023/01/06 00:22:59;;;;;;;23.88;13.65;;;;;;;;;;5040889;28;20112;-77
2023/01/06 00:25:25;;;;;;;21.92;14.40;;;;;;;;;;5051788;28;20117;-77
2023/01/06 00:27:51;;;;;;;20.55;12.68;;;;;;;;;;5049370;28;20682;-78
2023/01/06 00:30:17;;;;;;;21.48;12.40;;;;;;;;;;5054655;28;20041;-77
2023/01/06 00:32:43;;;;;;;21.42;11.93;;;;;;;;;;5041175;28;20032;-77
2023/01/06 00:35:09;;;;;;;24.88;13.73;;;;;;;;;;5051340;28;20115;-78
2023/01/06 00:37:35;;;;;;;21.25;13.13;;;;;;;;;;5051869;28;20040;-78
2023/01/06 00:40:01;;;;;;;25.20;15.32;;;;;;;;;;5049953;28;20041;-78
2023/01/06 00:42:27;;;;;;;24.10;13.65;;;;;;;;;;5041962;28;20472;-78
2023/01/06 00:44:53;;;;;;;27.83;17.35;;;;;;;;;;5051342;28;20032;-78
2023/01/06 00:47:19;;;;;;;24.60;12.10;;;;;;;;;;5039726;28;20038;-77
2023/01/06 00:49:46;;;;;;;20.85;11.77;;;;;;;;;;5044346;28;20040;-78
2023/01/06 00:52:12;;;;;;;20.00;9.95;;;;;;;;;;5047919;28;20075;-78
2023/01/06 00:54:38;;;;;;;19.80;10.70;;;;;;;;;;5042515;28;20069;-78
2023/01/06 00:57:05;;;;;;;19.85;11.43;;;;;;;;;;5044218;28;20068;-78
2023/01/06 00:59:31;;;;;;;21.02;12.13;;;;;;;;;;5045063;28;20041;-77
2023/01/06 01:01:57;;;;;;;16.20;9.77;;;;;;;;;;5034190;28;20056;-77
2023/01/06 01:04:24;;;;;;;15.75;9.20;;;;;;;;;;5040259;28;20472;-77
2023/01/06 01:06:51;;;;;;;18.88;9.25;;;;;;;;;;5047911;28;20060;-77
2023/01/06 01:09:18;;;;;;;17.33;8.55;;;;;;;;;;5051035;28;20394;-78
2023/01/06 01:14:29;;;;;;;19.27;11.38;;;;;;;;;;5051098;28;20094;-78
2023/01/06 01:16:56;;;;;;;15.93;9.00;;;;;;;;;;5049415;28;20025;-78
2023/01/06 01:19:22;;;;;;;17.38;8.85;;;;;;;;;;5039042;28;20037;-78
2023/01/06 01:21:48;;;;;;;17.00;8.45;;;;;;;;;;5033137;28;20052;-78
2023/01/06 01:24:15;;;;;;;19.60;10.95;;;;;;;;;;5049969;28;20037;-78
2023/01/06 01:26:41;;;;;;;19.40;10.63;;;;;;;;;;5044139;28;20704;-78
2023/01/06 01:29:09;;;;;;;18.67;9.45;;;;;;;;;;5036378;28;20087;-77
2023/01/06 01:31:35;;;;;;;16.83;9.23;;;;;;;;;;5036500;28;20477;-78
2023/01/06 01:34:01;;;;;;;25.52;13.40;;;;;;;;;;5036563;28;20044;-78
2023/01/06 01:36:27;;;;;;;16.52;9.55;;;;;;;;;;5050092;28;20159;-78
2023/01/06 01:38:55;;;;;;;16.48;8.23;;;;;;;;;;5035442;28;20036;-78
2023/01/06 01:41:21;;;;;;;15.80;8.90;;;;;;;;;;5043246;28;20033;-78
2023/01/06 01:43:52;;;;;;;16.52;8.68;;;;;;;;;;5050351;28;20036;-77
2023/01/06 01:46:39;;;;;;;18.90;10.88;;;;;;;;;;5036659;28;20040;-78
2023/01/06 01:49:11;;;;;;;14.75;8.88;;;;;;;;;;5050416;28;20074;-78
2023/01/06 01:51:39;;;;;;;14.20;7.95;;;;;;;;;;5047611;28;20029;-78
2023/01/06 01:54:07;;;;;;;18.30;8.63;;;;;;;;;;5047213;28;20071;-78
2023/01/06 01:56:34;;;;;;;14.82;8.38;;;;;;;;;;5038130;28;20112;-78
2023/01/06 01:59:02;;;;;;;15.70;9.02;;;;;;;;;;5049457;28;20357;-78
2023/01/06 02:01:29;;;;;;;15.40;6.88;;;;;;;;;;5047041;28;20068;-78
2023/01/06 02:03:55;;;;;;;15.57;9.93;;;;;;;;;;5046033;28;20123;-78
2023/01/06 02:06:22;;;;;;;14.73;7.30;;;;;;;;;;5040553;28;20045;-78
2023/01/06 02:08:55;;;;;;;16.75;7.68;;;;;;;;;;5045023;28;20138;-78
2023/01/06 02:11:22;;;;;;;12.02;6.88;;;;;;;;;;5046882;28;20192;-77
2023/01/06 02:13:49;;;;;;;13.40;6.43;;;;;;;;;;5040723;28;20050;-78
2023/01/06 02:16:34;;;;;;;12.93;7.55;;;;;;;;;;5032613;28;20033;-77
2023/01/06 02:19:06;;;;;;;10.70;6.18;;;;;;;;;;5034843;28;20036;-78
2023/01/06 02:21:51;;;;;;;13.27;6.53;;;;;;;;;;5050032;28;20036;-78
2023/01/06 02:24:23;;;;;;;12.77;6.18;;;;;;;;;;5046506;28;20039;-78
2023/01/06 02:27:04;;;;;;;13.68;6.63;;;;;;;;;;5038382;28;20032;-78
2023/01/06 02:29:33;;;;;;;15.95;7.28;;;;;;;;;;5048656;28;20028;-78
2023/01/06 02:32:02;;;;;;;17.45;8.63;;;;;;;;;;5041937;28;20041;-78
2023/01/06 02:34:41;;;;;;;15.63;7.38;;;;;;;;;;5048136;28;20028;-78
2023/01/06 02:37:25;;;;;;;15.30;8.35;;;;;;;;;;5047229;28;20041;-78
2023/01/06 02:40:09;;;;;;;25.40;9.27;;;;;;;;;;5047244;28;20056;-78
2023/01/06 02:42:44;;;;;;;23.83;11.27;;;;;;;;;;5040272;28;20437;-78
2023/01/06 02:45:23;;;;;;;19.15;8.23;;;;;;;;;;5045225;28;20033;-77
2023/01/06 02:47:52;;;;;;;17.42;9.13;;;;;;;;;;5043489;28;20033;-78
2023/01/06 02:50:18;;;;;;;13.63;8.10;;;;;;;;;;5045577;28;20050;-77
2023/01/06 02:52:50;;;;;;;18.38;10.15;;;;;;;;;;5035484;28;20029;-77
2023/01/06 02:55:22;;;;;;;14.23;7.97;;;;;;;;;;5039053;28;20888;-77
2023/01/06 02:57:48;;;;;;;21.25;12.93;;;;;;;;;;5040274;28;20384;-78
2023/01/06 03:00:16;;;;;;;12.18;7.22;;;;;;;;;;5034940;28;20148;-79
2023/01/06 03:02:44;;;;;;;18.35;11.00;;;;;;;;;;5034487;28;20033;-78
2023/01/06 03:05:11;;;;;;;13.68;8.95;;;;;;;;;;5047941;28;20494;-78
2023/01/06 03:07:38;;;;;;;22.27;10.80;;;;;;;;;;5035388;28;20037;-78
2023/01/06 03:10:05;;;;;;;16.60;9.13;;;;;;;;;;5039734;28;20166;-78
2023/01/06 03:12:38;;;;;;;15.70;8.85;;;;;;;;;;5032941;28;20444;-77
2023/01/06 03:15:04;;;;;;;14.55;8.45;;;;;;;;;;5036111;28;20037;-78
2023/01/06 03:17:30;;;;;;;15.85;9.82;;;;;;;;;;5046775;28;20032;-78
2023/01/06 03:19:56;;;;;;;15.50;9.40;;;;;;;;;;5041035;28;20479;-78
2023/01/06 03:22:23;;;;;;;15.32;9.02;;;;;;;;;;5042334;28;20467;-77
2023/01/06 03:24:49;;;;;;;18.95;11.23;;;;;;;;;;5046173;28;20116;-78
2023/01/06 03:27:17;;;;;;;16.05;9.25;;;;;;;;;;5048221;28;20554;-78
2023/01/06 03:29:43;;;;;;;27.23;14.25;;;;;;;;;;5043531;28;20033;-78
2023/01/06 03:32:12;;;;;;;34.22;16.13;;;;;;;;;;5047191;28;20033;-77
2023/01/06 03:34:48;;;;;;;22.67;12.25;;;;;;;;;;5035531;28;20037;-78
2023/01/06 03:37:14;;;;;;;29.60;13.30;;;;;;;;;;5048009;28;20037;-78
2023/01/06 03:39:49;;;;;;;28.67;13.65;;;;;;;;;;5048389;28;20033;-78
2023/01/06 03:45:13;;;;;;;41.05;12.60;;;;;;;;;;5041243;28;20136;-77
2023/01/06 03:48:18;;;;;;;26.85;11.15;;;;;;;;;;5054995;28;20037;-78
2023/01/06 03:50:50;;;;;;;30.92;11.32;;;;;;;;;;4973364;28;20034;-77
2023/01/06 03:53:16;;;;;;;18.30;10.13;;;;;;;;;;4973960;28;21024;-77
2023/01/06 03:55:44;;;;;;;24.52;10.18;;;;;;;;;;5011816;28;20056;-78
2023/01/06 03:58:11;;;;;;;24.83;14.18;;;;;;;;;;5043874;28;20083;-77
2023/01/06 04:00:37;;;;;;;22.92;10.07;;;;;;;;;;5045730;28;20755;-77
2023/01/06 04:03:08;;;;;;;20.23;11.88;;;;;;;;;;5044753;28;20091;-77
2023/01/06 04:05:34;;;;;;;25.45;9.48;;;;;;;;;;5041637;28;20591;-78
2023/01/06 04:07:59;;;;;;;36.97;12.63;;;;;;;;;;5051282;28;20033;-78
2023/01/06 04:10:25;;;;;;;35.33;14.80;;;;;;;;;;5054709;28;20035;-77
2023/01/06 04:12:52;;;;;;;45.13;18.60;;;;;;;;;;5049152;28;20439;-77
2023/01/06 04:15:20;;;;;;;26.65;13.93;;;;;;;;;;5055281;28;20029;-78
2023/01/06 04:17:46;;;;;;;103.10;20.35;;;;;;;;;;5051502;28;20064;-78
2023/01/06 04:20:14;;;;;;;23.13;13.23;;;;;;;;;;5046933;28;20037;-78
2023/01/06 04:22:40;;;;;;;20.90;13.20;;;;;;;;;;5043794;28;20029;-77
2023/01/06 04:25:06;;;;;;;24.08;14.48;;;;;;;;;;5041273;28;20033;-77
2023/01/06 04:27:32;;;;;;;160.70;32.58;;;;;;;;;;5048548;28;20029;-77
2023/01/06 04:29:58;;;;;;;79.32;20.70;;;;;;;;;;5043204;28;20487;-77
2023/01/06 04:32:25;;;;;;;61.15;17.98;;;;;;;;;;5040801;28;20025;-78
2023/01/06 04:34:51;;;;;;;33.97;13.73;;;;;;;;;;5050306;28;20379;-78
2023/01/06 04:37:17;;;;;;;40.22;14.82;;;;;;;;;;5028449;28;20021;-77
2023/01/06 04:39:43;;;;;;;26.13;14.98;;;;;;;;;;5054967;28;20116;-77
2023/01/06 04:42:09;;;;;;;25.02;11.63;;;;;;;;;;5054528;28;20032;-77
2023/01/06 04:44:35;;;;;;;24.70;13.73;;;;;;;;;;5051829;28;20037;-77
2023/01/06 04:47:01;;;;;;;22.30;12.57;;;;;;;;;;5053552;28;20032;-77
2023/01/06 04:49:27;;;;;;;22.85;11.57;;;;;;;;;;5050216;28;20404;-77
2023/01/06 04:51:53;;;;;;;21.88;12.13;;;;;;;;;;5054480;28;20376;-78
2023/01/06 04:54:19;;;;;;;29.42;17.77;;;;;;;;;;5045336;28;20034;-78
2023/01/06 04:56:45;;;;;;;22.27;13.20;;;;;;;;;;5032067;28;20080;-78
2023/01/06 04:59:11;;;;;;;21.35;11.18;;;;;;;;;;5045254;28;20037;-78
2023/01/06 05:01:37;;;;;;;20.73;11.18;;;;;;;;;;5048292;28;20079;-77
2023/01/06 05:04:06;;;;;;;44.22;21.88;;;;;;;;;;5041356;28;20044;-78
2023/01/06 05:06:32;;;;;;;25.58;14.32;;;;;;;;;;5040069;28;20034;-77
2023/01/06 05:08:58;;;;;;;23.63;13.55;;;;;;;;;;5031216;28;20033;-78
2023/01/06 05:11:25;;;;;;;23.63;13.68;;;;;;;;;;5043130;28;20807;-77
2023/01/06 05:13:51;;;;;;;21.33;12.45;;;;;;;;;;5041883;28;20029;-78
2023/01/06 05:16:27;;;;;;;22.35;13.70;;;;;;;;;;5042101;28;20033;-78
2023/01/06 05:18:53;;;;;;;19.38;10.82;;;;;;;;;;5044482;28;20108;-77
2023/01/06 05:21:19;;;;;;;17.25;11.45;;;;;;;;;;5050434;28;20729;-78
2023/01/06 05:23:45;;;;;;;16.48;9.50;;;;;;;;;;5050694;28;20044;-78
2023/01/06 05:26:16;;;;;;;16.25;9.30;;;;;;;;;;5041153;28;20037;-78
2023/01/06 05:28:42;;;;;;;25.67;14.50;;;;;;;;;;5050600;28;20395;-77
2023/01/06 05:31:09;;;;;;;16.42;9.77;;;;;;;;;;5044298;28;20045;-77
2023/01/06 05:33:35;;;;;;;27.33;14.07;;;;;;;;;;5041494;28;20026;-78
2023/01/06 05:36:02;;;;;;;18.73;11.73;;;;;;;;;;5043887;28;20041;-77
2023/01/06 05:38:28;;;;;;;19.90;10.63;;;;;;;;;;5049688;28;20033;-78
2023/01/06 05:40:55;;;;;;;22.63;13.65;;;;;;;;;;5044113;28;20029;-78
2023/01/06 05:43:22;;;;;;;19.60;11.52;;;;;;;;;;5039365;28;20211;-78
2023/01/06 05:45:48;;;;;;;19.33;10.88;;;;;;;;;;5050153;28;20029;-77
2023/01/06 05:48:14;;;;;;;17.55;9.95;;;;;;;;;;5050439;28;20032;-78
2023/01/06 05:50:40;;;;;;;18.13;10.60;;;;;;;;;;5039176;28;20112;-78
2023/01/06 05:53:06;;;;;;;18.48;11.30;;;;;;;;;;5041753;28;20492;-78
2023/01/06 05:55:32;;;;;;;22.30;15.98;;;;;;;;;;5031750;28;20065;-77
2023/01/06 05:57:58;;;;;;;28.75;19.05;;;;;;;;;;5049877;28;20029;-78
2023/01/06 06:00:24;;;;;;;31.08;18.75;;;;;;;;;;5028320;28;20029;-77
2023/01/06 06:02:50;;;;;;;48.42;28.38;;;;;;;;;;5048837;28;20053;-77
2023/01/06 06:05:16;;;;;;;29.35;17.17;;;;;;;;;;5049463;28;20029;-78
2023/01/06 06:07:42;;;;;;;29.20;18.25;;;;;;;;;;5045643;28;20044;-78
2023/01/06 06:10:08;;;;;;;31.60;19.90;;;;;;;;;;5049633;28;20037;-77
2023/01/06 06:12:35;;;;;;;33.55;21.10;;;;;;;;;;5049415;28;20043;-77
2023/01/06 06:15:01;;;;;;;34.08;20.00;;;;;;;;;;5039135;28;20029;-77
2023/01/06 06:17:27;;;;;;;40.15;22.55;;;;;;;;;;5049528;28;20424;-77
2023/01/06 06:19:53;;;;;;;30.98;19.50;;;;;;;;;;5046593;28;20463;-77
2023/01/06 06:22:19;;;;;;;32.38;19.90;;;;;;;;;;5051009;28;20094;-78
2023/01/06 06:24:45;;;;;;;33.55;22.02;;;;;;;;;;5039099;28;20060;-77
2023/01/06 06:27:11;;;;;;;39.50;25.20;;;;;;;;;;5049139;28;20107;-77
2023/01/06 06:29:37;;;;;;;34.17;20.10;;;;;;;;;;5050209;28;20829;-78
2023/01/06 06:32:03;;;;;;;35.00;24.15;;;;;;;;;;5053130;28;20070;-77
2023/01/06 06:34:29;;;;;;;28.02;18.80;;;;;;;;;;5046467;28;20029;-79
2023/01/06 06:36:55;;;;;;;31.67;21.30;;;;;;;;;;5045427;28;20083;-79
2023/01/06 06:39:21;;;;;;;41.47;28.88;;;;;;;;;;5055564;28;21006;-77
2023/01/06 06:41:47;;;;;;;43.13;29.33;;;;;;;;;;5047417;28;20025;-78
2023/01/06 06:44:13;;;;;;;40.08;28.05;;;;;;;;;;5036532;28;21334;-78
2023/01/06 06:46:39;;;;;;;42.17;31.40;;;;;;;;;;5047013;28;20198;-78
2023/01/06 06:49:05;;;;;;;71.38;54.97;;;;;;;;;;5043111;28;20040;-78
2023/01/06 06:51:31;;;;;;;93.75;72.65;;;;;;;;;;5038923;28;20033;-78
2023/01/06 06:53:57;;;;;;;81.70;68.82;;;;;;;;;;5043697;28;20744;-78
2023/01/06 06:56:23;;;;;;;88.63;68.32;;;;;;;;;;5045868;28;20132;-78
2023/01/06 06:58:50;;;;;;;96.25;70.50;;;;;;;;;;5042918;28;20699;-78
2023/01/06 07:01:17;;;;;;;119.50;94.95;;;;;;;;;;5037854;28;20033;-78
2023/01/06 07:03:43;;;;;;;116.65;84.80;;;;;;;;;;5044775;28;20041;-78
2023/01/06 07:06:12;;;;;;;77.35;61.75;;;;;;;;;;5041998;28;20037;-78
2023/01/06 07:08:38;;;;;;;49.38;35.53;;;;;;;;;;5044982;28;20025;-78
2023/01/06 07:11:04;;;;;;;53.83;37.97;;;;;;;;;;5047649;28;20039;-78
2023/01/06 07:13:30;;;;;;;34.47;25.50;;;;;;;;;;5041371;28;20033;-77
2023/01/06 07:15:56;;;;;;;32.00;23.35;;;;;;;;;;5040939;28;20075;-78
2023/01/06 07:18:22;;;;;;;31.95;25.38;;;;;;;;;;5047935;28;20072;-78
2023/01/06 07:20:50;;;;;;;38.72;30.17;;;;;;;;;;5034282;28;20034;-78
2023/01/06 07:23:16;;;;;;;56.10;40.58;;;;;;;;;;5033445;28;20037;-78
2023/01/06 07:25:42;;;;;;;44.22;36.17;;;;;;;;;;5045029;28;20044;-78
2023/01/06 07:28:08;;;;;;;47.90;38.22;;;;;;;;;;5044137;28;20431;-78
2023/01/06 07:30:35;;;;;;;54.15;45.22;;;;;;;;;;5040569;28;20332;-78
2023/01/06 07:33:02;;;;;;;45.67;38.45;;;;;;;;;;5038118;28;20095;-77
2023/01/06 07:35:29;;;;;;;54.55;46.65;;;;;;;;;;5036213;28;21030;-78
2023/01/06 07:37:55;;;;;;;37.58;31.13;;;;;;;;;;5048315;28;20361;-78
2023/01/06 07:40:21;;;;;;;35.28;29.50;;;;;;;;;;5046470;28;20044;-78
2023/01/06 07:42:47;;;;;;;32.25;26.35;;;;;;;;;;5048609;28;20033;-78
2023/01/06 07:45:13;;;;;;;26.88;20.88;;;;;;;;;;5044095;28;20071;-78
2023/01/06 07:47:39;;;;;;;24.38;19.35;;;;;;;;;;5047377;28;20424;-78
2023/01/06 07:50:05;;;;;;;25.55;18.88;;;;;;;;;;5041618;28;20060;-78
2023/01/06 07:52:32;;;;;;;27.80;20.52;;;;;;;;;;5043182;28;20037;-78
2023/01/06 07:54:58;;;;;;;17.35;13.32;;;;;;;;;;5040830;28;20049;-78
2023/01/06 07:57:27;;;;;;;15.48;10.68;;;;;;;;;;5047574;28;20048;-78
2023/01/06 07:59:53;;;;;;;14.55;10.07;;;;;;;;;;5036792;28;20033;-78
2023/01/06 08:02:19;;;;;;;15.13;11.13;;;;;;;;;;5041509;28;20069;-78
2023/01/06 08:04:45;;;;;;;16.15;11.77;;;;;;;;;;5037286;28;20407;-78
2023/01/06 08:07:12;;;;;;;19.23;13.60;;;;;;;;;;5035507;28;20033;-78
2023/01/06 08:09:38;;;;;;;20.38;15.85;;;;;;;;;;5030286;28;20028;-79
2023/01/06 08:12:04;;;;;;;29.60;21.08;;;;;;;;;;5039403;28;20107;-78
2023/01/06 08:14:30;;;;;;;27.13;20.08;;;;;;;;;;5040154;28;20025;-78
2023/01/06 08:16:56;;;;;;;29.38;23.90;;;;;;;;;;5044426;28;20036;-78
2023/01/06 08:19:22;;;;;;;35.75;29.13;;;;;;;;;;5047027;28;20086;-77
2023/01/06 08:21:48;;;;;;;31.98;26.70;;;;;;;;;;5046830;28;20037;-77
2023/01/06 08:24:14;;;;;;;37.20;29.95;;;;;;;;;;5044303;28;20422;-78
2023/01/06 08:26:40;;;;;;;50.45;42.25;;;;;;;;;;5038676;28;20041;-77
2023/01/06 08:29:07;;;;;;;60.47;52.22;;;;;;;;;;5045711;28;20135;-78
2023/01/06 08:31:33;;;;;;;67.88;56.55;;;;;;;;;;5047198;28;20064;-78
2023/01/06 08:33:59;;;;;;;54.00;45.80;;;;;;;;;;5047743;28;20067;-78
2023/01/06 08:36:26;;;;;;;41.45;36.67;;;;;;;;;;5047237;28;20033;-78
2023/01/06 08:38:52;;;;;;;19.38;12.73;;;;;;;;;;5043231;28;20031;-78
2023/01/06 08:41:18;;;;;;;13.38;8.38;;;;;;;;;;5039107;28;20034;-77
2023/01/06 08:43:45;;;;;;;11.32;6.78;;;;;;;;;;5047719;28;20029;-78
2023/01/06 08:46:13;;;;;;;12.68;8.07;;;;;;;;;;5042716;28;20384;-77
2023/01/06 08:48:39;;;;;;;20.70;16.92;;;;;;;;;;5050030;28;20110;-78
2023/01/06 08:51:07;;;;;;;16.95;14.27;;;;;;;;;;5044359;28;20037;-78
2023/01/06 08:53:33;;;;;;;50.83;44.17;;;;;;;;;;5051093;28;20481;-78
2023/01/06 08:56:00;;;;;;;64.05;50.72;;;;;;;;;;5047980;28;20068;-77
2023/01/06 08:58:26;;;;;;;73.05;62.47;;;;;;;;;;5032302;28;20033;-78
2023/01/06 09:00:52;;;;;;;69.20;61.70;;;;;;;;;;5037608;28;20128;-77
2023/01/06 09:03:18;;;;;;;66.55;58.85;;;;;;;;;;5045884;28;20048;-77
2023/01/06 09:05:51;;;;;;;64.65;57.78;;;;;;;;;;5050561;28;20080;-77
2023/01/06 09:08:17;;;;;;;54.90;43.10;;;;;;;;;;5048143;28;20041;-77
2023/01/06 09:10:43;;;;;;;18.38;13.05;;;;;;;;;;5048302;28;20029;-78
2023/01/06 09:13:09;;;;;;;17.40;11.10;;;;;;;;;;5042586;28;20392;-79
2023/01/06 09:15:39;;;;;;;13.05;9.45;;;;;;;;;;5046968;28;20036;-78
2023/01/06 09:18:07;;;;;;;13.85;8.05;;;;;;;;;;5049600;28;20025;-78
2023/01/06 09:20:33;;;;;;;8.70;5.43;;;;;;;;;;5042723;28;20056;-78
2023/01/06 09:22:59;;;;;;;9.20;4.35;;;;;;;;;;5043939;28;20112;-77
2023/01/06 09:25:25;;;;;;;12.93;5.45;;;;;;;;;;5041436;28;20566;-78
2023/01/06 09:27:51;;;;;;;9.45;4.85;;;;;;;;;;5041404;28;20037;-78
2023/01/06 09:30:17;;;;;;;8.48;4.50;;;;;;;;;;5042042;28;20040;-78
2023/01/06 09:32:43;;;;;;;10.50;4.38;;;;;;;;;;5044529;28;20609;-78
2023/01/06 09:35:10;;;;;;;10.48;4.47;;;;;;;;;;5048884;28;20033;-77
2023/01/06 09:37:36;;;;;;;14.80;5.05;;;;;;;;;;5036857;28;20507;-78
2023/01/06 09:40:02;;;;;;;11.07;4.97;;;;;;;;;;5045538;28;20372;-78
2023/01/06 09:42:40;;;;;;;10.30;5.05;;;;;;;;;;5038674;28;20764;-78
2023/01/06 09:45:10;;;;;;;12.85;5.53;;;;;;;;;;5044576;28;20167;-78
2023/01/06 09:47:49;;;;;;;11.30;4.38;;;;;;;;;;5047413;28;20041;-78
2023/01/06 09:50:17;;;;;;;9.27;3.35;;;;;;;;;;5034331;28;20056;-78
2023/01/06 09:52:46;;;;;;;8.15;3.80;;;;;;;;;;5044842;28;20037;-78
2023/01/06 09:55:15;;;;;;;7.10;3.65;;;;;;;;;;5035840;28;20512;-78
2023/01/06 09:57:47;;;;;;;9.73;3.38;;;;;;;;;;5049358;28;20425;-78
2023/01/06 10:00:22;;;;;;;6.40;2.80;;;;;;;;;;5027524;28;20471;-78
2023/01/06 10:02:48;;;;;;;7.57;3.80;;;;;;;;;;5049280;28;20065;-78
2023/01/06 10:05:25;;;;;;;9.38;4.47;;;;;;;;;;5044301;28;20060;-78
2023/01/06 10:07:56;;;;;;;6.53;4.30;;;;;;;;;;5041783;28;20029;-78
2023/01/06 10:10:49;;;;;;;13.57;8.32;;;;;;;;;;5039411;28;20890;-78
2023/01/06 10:13:42;;;;;;;16.50;11.73;;;;;;;;;;5044991;28;20052;-77
2023/01/06 10:16:08;;;;;;;28.05;25.02;;;;;;;;;;5034394;28;20033;-78
2023/01/06 10:18:48;;;;;;;28.38;25.27;;;;;;;;;;5039552;28;20123;-78
2023/01/06 10:21:21;;;;;;;36.90;32.88;;;;;;;;;;5048082;28;20041;-78
2023/01/06 10:23:56;;;;;;;34.65;28.58;;;;;;;;;;5038164;28;20825;-78
2023/01/06 10:26:42;;;;;;;34.13;30.52;;;;;;;;;;5046831;28;20047;-78
2023/01/06 10:29:18;;;;;;;31.50;27.67;;;;;;;;;;5043590;28;20036;-78
2023/01/06 10:31:45;;;;;;;27.08;21.98;;;;;;;;;;5043488;28;20033;-78
2023/01/06 10:34:21;;;;;;;26.27;19.15;;;;;;;;;;5045761;28;20059;-78
2023/01/06 10:37:11;;;;;;;25.98;19.50;;;;;;;;;;5043129;28;20787;-78
2023/01/06 10:39:38;;;;;;;35.40;24.15;;;;;;;;;;5015279;28;20041;-78
2023/01/06 10:44:56;;;;;;;47.85;31.98;;;;;;;;;;5041989;28;20380;-78
2023/01/06 10:47:28;;;;;;;40.40;30.27;;;;;;;;;;5043796;28;20033;-78
2023/01/06 10:49:54;;;;;;;37.22;26.80;;;;;;;;;;5031517;28;20026;-78
2023/01/06 10:52:21;;;;;;;37.38;29.13;;;;;;;;;;5048055;28;20526;-78
2023/01/06 10:54:48;;;;;;;33.33;26.15;;;;;;;;;;5040100;28;20045;-78
2023/01/06 10:57:37;;;;;;;32.20;24.10;;;;;;;;;;5041825;28;20040;-78
2023/01/06 11:00:09;;;;;;;30.77;20.15;;;;;;;;;;5031048;28;20120;-78
2023/01/06 11:02:35;;;;;;;27.60;19.27;;;;;;;;;;5040919;28;20506;-78
2023/01/06 11:05:01;;;;;;;27.85;16.63;;;;;;;;;;5035367;28;20030;-78
2023/01/06 11:07:28;;;;;;;28.40;20.42;;;;;;;;;;5037930;28;20045;-78
2023/01/06 11:09:55;;;;;;;29.13;18.40;;;;;;;;;;5045088;28;20029;-78
2023/01/06 11:12:28;;;;;;;32.75;20.75;;;;;;;;;;5044828;28;20033;-78
2023/01/06 11:14:59;;;;;;;18.95;11.38;;;;;;;;;;5042963;28;20483;-78
2023/01/06 11:17:25;;;;;;;16.73;11.32;;;;;;;;;;5040240;28;20072;-77
2023/01/06 11:20:24;;;;;;;16.35;12.02;;;;;;;;;;5044721;28;20048;-78
2023/01/06 11:22:50;;;;;;;22.58;13.90;;;;;;;;;;5005554;28;20040;-78
2023/01/06 11:25:18;;;;;;;46.90;29.60;;;;;;;;;;5039578;28;20029;-78
2023/01/06 11:27:45;;;;;;;38.60;22.52;;;;;;;;;;5032202;28;20494;-78
2023/01/06 11:30:21;;;;;;;18.40;11.63;;;;;;;;;;5047168;28;20949;-78
2023/01/06 11:32:47;;;;;;;17.02;9.57;;;;;;;;;;5029481;28;20049;-78
2023/01/06 11:35:19;;;;;;;18.08;10.93;;;;;;;;;;5039716;28;20036;-78
2023/01/06 11:37:45;;;;;;;15.93;8.32;;;;;;;;;;5043555;28;20033;-78
2023/01/06 11:40:24;;;;;;;22.17;14.55;;;;;;;;;;5035578;28;20052;-78
2023/01/06 11:42:53;;;;;;;20.58;12.32;;;;;;;;;;5045338;28;20087;-78
2023/01/06 11:45:35;;;;;;;17.08;11.70;;;;;;;;;;5041840;28;20025;-78
2023/01/06 11:48:03;;;;;;;12.98;8.63;;;;;;;;;;5036779;28;20072;-78
2023/01/06 11:50:29;;;;;;;13.48;6.47;;;;;;;;;;5044113;28;20053;-78
2023/01/06 11:53:02;;;;;;;13.80;9.60;;;;;;;;;;5047212;28;20052;-78
2023/01/06 11:55:29;;;;;;;11.32;6.78;;;;;;;;;;5045735;28;20053;-78
2023/01/06 11:57:58;;;;;;;8.80;4.50;;;;;;;;;;5037751;28;20476;-78
2023/01/06 12:00:31;;;;;;;5.55;2.70;;;;;;;;;;5047767;28;20380;-78
2023/01/06 12:03:15;;;;;;;5.07;1.92;;;;;;;;;;5045104;28;20622;-78
2023/01/06 12:06:05;;;;;;;4.25;2.45;;;;;;;;;;5044724;28;20487;-78
2023/01/06 12:08:38;;;;;;;4.85;2.83;;;;;;;;;;5050923;28;20941;-78
2023/01/06 12:11:04;;;;;;;;;;;;;;;;;;5039802;28;20729;-78
2023/01/06 12:13:32;;;;;;;6.60;2.95;;;;;;;;;;5049172;28;20011;-78
2023/01/06 12:16:12;;;;;;;6.57;2.97;;;;;;;;;;5042019;28;20044;-78
2023/01/06 12:18:38;;;;;;;5.95;2.88;;;;;;;;;;5051062;28;20036;-78
2023/01/06 12:21:05;;;;;;;6.03;2.95;;;;;;;;;;5050579;28;20036;-78
2023/01/06 12:23:37;;;;;;;6.30;2.72;;;;;;;;;;5049453;28;20037;-78
2023/01/06 12:26:07;;;;;;;7.20;3.20;;;;;;;;;;5043648;28;20033;-78
2023/01/06 12:28:35;;;;;;;4.32;1.95;;;;;;;;;;5042396;28;20033;-78
2023/01/06 12:31:10;;;;;;;5.35;1.67;;;;;;;;;;5040568;28;20041;-78
2023/01/06 12:33:41;;;;;;;6.15;1.70;;;;;;;;;;5038440;28;20419;-78
2023/01/06 12:36:11;;;;;;;5.13;1.52;;;;;;;;;;5047460;28;20036;-78
2023/01/06 12:38:54;;;;;;;3.85;1.40;;;;;;;;;;5041925;28;20104;-78
2023/01/06 12:41:24;;;;;;;3.13;1.23;;;;;;;;;;5045015;28;20504;-78
2023/01/06 12:43:59;;;;;;;6.35;1.20;;;;;;;;;;5047952;28;20063;-78
2023/01/06 12:46:28;;;;;;;8.25;1.60;;;;;;;;;;5041069;28;20071;-78
2023/01/06 12:49:00;;;;;;;3.75;1.63;;;;;;;;;;5045461;28;20033;-78
2023/01/06 12:51:39;;;;;;;3.92;1.75;;;;;;;;;;5050908;28;20036;-78
2023/01/06 12:54:10;;;;;;;4.43;2.47;;;;;;;;;;5036412;28;20365;-79
2023/01/06 12:56:54;;;;;;;5.75;2.90;;;;;;;;;;5041577;28;20106;-78
2023/01/06 12:59:20;;;;;;;5.22;2.17;;;;;;;;;;5047737;28;20044;-78
2023/01/06 13:02:03;;;;;;;3.70;1.73;;;;;;;;;;5046040;28;20033;-78
2023/01/06 13:04:44;;;;;;;6.47;2.40;;;;;;;;;;5038931;28;20038;-78
2023/01/06 13:07:19;;;;;;;7.20;2.58;;;;;;;;;;5042311;28;20036;-78
2023/01/06 13:09:51;;;;;;;6.95;3.55;;;;;;;;;;5048467;28;20483;-78
2023/01/06 13:12:34;;;;;;;7.93;3.80;;;;;;;;;;5037208;28;20435;-78
2023/01/06 13:15:00;;;;;;;6.68;3.22;;;;;;;;;;5044628;28;20029;-78
2023/01/06 13:17:38;;;;;;;6.60;3.45;;;;;;;;;;5039021;28;20036;-78
2023/01/06 13:20:07;;;;;;;4.88;2.63;;;;;;;;;;5040220;28;20040;-78
2023/01/06 13:22:33;;;;;;;5.63;2.78;;;;;;;;;;5044291;28;20521;-79
2023/01/06 13:24:59;;;;;;;9.15;3.90;;;;;;;;;;5048460;28;20111;-78
2023/01/06 13:27:28;;;;;;;8.68;5.13;;;;;;;;;;5041131;28;20033;-78
2023/01/06 13:30:06;;;;;;;9.52;4.90;;;;;;;;;;5045883;28;20108;-78
2023/01/06 13:32:41;;;;;;;12.88;6.93;;;;;;;;;;5049544;28;20055;-78
2023/01/06 13:35:20;;;;;;;13.85;8.68;;;;;;;;;;5047652;28;20037;-78
2023/01/06 13:37:55;;;;;;;14.82;8.68;;;;;;;;;;5044746;28;20101;-77
2023/01/06 13:40:25;;;;;;;13.55;8.00;;;;;;;;;;5048957;28;20036;-78
2023/01/06 13:42:55;;;;;;;13.02;7.40;;;;;;;;;;5044766;28;20029;-78
2023/01/06 13:45:27;;;;;;;14.35;8.18;;;;;;;;;;5047427;28;20086;-78
2023/01/06 13:47:54;;;;;;;37.88;24.98;;;;;;;;;;5044538;28;20041;-78
2023/01/06 13:50:20;;;;;;;32.53;22.85;;;;;;;;;;5036850;28;20029;-78
2023/01/06 13:52:46;;;;;;;23.45;16.25;;;;;;;;;;5046118;28;20104;-78
2023/01/06 13:55:18;;;;;;;20.00;11.48;;;;;;;;;;5048809;28;20084;-78
2023/01/06 13:57:45;;;;;;;21.50;11.73;;;;;;;;;;5048882;28;20033;-78
2023/01/06 14:00:11;;;;;;;19.13;12.38;;;;;;;;;;5042067;28;20078;-78
2023/01/06 14:02:41;;;;;;;22.25;14.95;;;;;;;;;;5040228;28;20041;-78
2023/01/06 14:05:20;;;;;;;19.25;12.32;;;;;;;;;;5048510;28;20366;-78
2023/01/06 14:07:51;;;;;;;17.38;10.07;;;;;;;;;;5041627;28;20104;-78
2023/01/06 14:10:41;;;;;;;14.23;8.77;;;;;;;;;;5049376;28;20036;-78
2023/01/06 14:13:17;;;;;;;11.40;7.05;;;;;;;;;;5025711;28;20136;-78
2023/01/06 14:15:54;;;;;;;10.07;5.45;;;;;;;;;;5041691;28;20049;-77
2023/01/06 14:18:31;;;;;;;11.35;4.85;;;;;;;;;;5043320;28;20037;-78
2023/01/06 14:21:04;;;;;;;8.32;4.50;;;;;;;;;;5041830;28;20033;-78
2023/01/06 14:23:30;;;;;;;7.18;3.60;;;;;;;;;;5045917;28;20033;-78
2023/01/06 14:25:57;;;;;;;6.38;3.38;;;;;;;;;;5044822;28;20074;-78
2023/01/06 14:28:29;;;;;;;8.85;3.58;;;;;;;;;;5039253;28;20124;-78
2023/01/06 14:31:13;;;;;;;8.98;4.45;;;;;;;;;;5044103;28;20037;-78
2023/01/06 14:33:42;;;;;;;9.05;3.47;;;;;;;;;;5037329;28;20044;-78
2023/01/06 14:36:13;;;;;;;6.60;3.80;;;;;;;;;;5040966;28;20154;-77
2023/01/06 14:38:47;;;;;;;6.32;3.10;;;;;;;;;;5041053;28;20029;-78
2023/01/06 14:41:17;;;;;;;5.80;3.00;;;;;;;;;;5049590;28;20045;-78
2023/01/06 14:43:50;;;;;;;6.43;3.25;;;;;;;;;;5045332;28;20043;-78